createdAt,value
2022-08-21T00:02:17.460Z,4.97
2022-08-21T00:04:54.568Z,5.03
2022-08-21T00:07:27.330Z,4.82
2022-08-21T00:09:59.872Z,5.43
2022-08-21T00:12:28.831Z,4.85
2022-08-21T00:14:58.209Z,4.97
2022-08-21T00:17:28.511Z,4.70
2022-08-21T00:19:58.411Z,5.20
2022-08-21T00:22:29.436Z,5.28
2022-08-21T00:24:58.308Z,5.05
2022-08-21T00:27:27.054Z,4.88
2022-08-21T00:29:56.515Z,4.97
2022-08-21T00:32:28.575Z,5.00
2022-08-21T00:34:59.184Z,5.03
2022-08-21T00:37:28.649Z,5.20
2022-08-21T00:39:59.215Z,5.00
2022-08-21T00:42:32.881Z,5.05
2022-08-21T00:45:02.422Z,5.03
2022-08-21T00:47:34.104Z,4.75
2022-08-21T00:50:03.886Z,4.78
2022-08-21T00:52:37.049Z,4.88
2022-08-21T00:55:09.988Z,5.05
2022-08-21T00:57:46.015Z,5.07
2022-08-21T01:00:23.854Z,5.10
2022-08-21T01:03:00.721Z,4.72
2022-08-21T01:05:30.115Z,5.13
2022-08-21T01:08:00.387Z,4.63
2022-08-21T01:10:30.367Z,4.82
2022-08-21T01:13:00.615Z,4.68
2022-08-21T01:15:41.277Z,5.03
2022-08-21T01:18:15.949Z,4.25
2022-08-21T01:20:59.428Z,4.90
2022-08-21T01:23:28.680Z,5.13
2022-08-21T01:25:57.494Z,4.72
2022-08-21T01:28:26.732Z,4.75
2022-08-21T01:30:57.191Z,4.28
2022-08-21T01:33:27.464Z,5.00
2022-08-21T01:35:56.681Z,4.25
2022-08-21T01:38:27.671Z,4.45
2022-08-21T01:40:58.683Z,4.20
2022-08-21T01:43:30.709Z,4.40
2022-08-21T01:46:08.625Z,4.03
2022-08-21T01:48:38.612Z,4.00
2022-08-21T01:51:08.445Z,4.55
2022-08-21T01:53:40.340Z,4.15
2022-08-21T01:56:13.906Z,4.53
2022-08-21T01:58:44.225Z,4.97
2022-08-21T02:01:14.929Z,4.55
2022-08-21T02:03:44.597Z,4.50
2022-08-21T02:06:19.232Z,4.13
2022-08-21T02:08:51.473Z,4.78
2022-08-21T02:11:21.615Z,3.97
2022-08-21T02:13:50.332Z,4.50
2022-08-21T02:16:19.663Z,4.35
2022-08-21T02:18:49.242Z,4.32
2022-08-21T02:21:17.886Z,4.75
2022-08-21T02:23:48.536Z,4.55
2022-08-21T02:26:17.956Z,4.95
2022-08-21T02:28:47.436Z,4.38
2022-08-21T02:31:17.688Z,4.57
2022-08-21T02:33:46.912Z,4.78
2022-08-21T02:36:16.393Z,4.50
2022-08-21T02:38:46.026Z,4.40
2022-08-21T02:41:20.454Z,4.82
2022-08-21T02:43:49.797Z,4.47
2022-08-21T02:46:22.378Z,4.57
2022-08-21T02:48:51.234Z,4.93
2022-08-21T02:51:23.998Z,4.78
2022-08-21T02:53:52.725Z,4.57
2022-08-21T02:56:24.155Z,4.90
2022-08-21T02:58:57.708Z,4.35
2022-08-21T03:01:30.263Z,4.40
2022-08-21T03:03:59.138Z,4.38
2022-08-21T03:06:28.230Z,4.55
2022-08-21T03:08:57.729Z,5.93
2022-08-21T03:11:29.734Z,5.15
2022-08-21T03:13:59.357Z,4.80
2022-08-21T03:16:34.377Z,5.18
2022-08-21T03:19:05.832Z,5.18
2022-08-21T03:21:35.961Z,4.88
2022-08-21T03:24:08.052Z,5.03
2022-08-21T03:26:38.450Z,5.10
2022-08-21T03:29:10.949Z,4.63
2022-08-21T03:31:40.683Z,4.90
2022-08-21T03:34:09.758Z,4.50
2022-08-21T03:36:38.238Z,5.18
2022-08-21T03:39:08.429Z,5.07
2022-08-21T03:41:41.778Z,4.20
2022-08-21T03:44:10.905Z,4.80
2022-08-21T03:46:40.080Z,4.65
2022-08-21T03:49:10.332Z,5.35
2022-08-21T03:51:38.795Z,5.07
2022-08-21T03:54:07.953Z,5.82
2022-08-21T03:56:38.533Z,5.57
2022-08-21T03:59:07.557Z,4.57
2022-08-21T04:01:37.454Z,5.22
2022-08-21T04:04:07.492Z,5.40
2022-08-21T04:06:38.021Z,5.32
2022-08-21T04:09:07.656Z,5.70
2022-08-21T04:11:40.199Z,5.78
2022-08-21T04:14:08.912Z,5.82
2022-08-21T04:16:40.342Z,5.80
2022-08-21T04:19:10.119Z,5.82
2022-08-21T04:21:40.675Z,6.13
2022-08-21T04:24:11.661Z,6.78
2022-08-21T04:26:43.385Z,6.75
2022-08-21T04:29:14.714Z,6.30
2022-08-21T04:31:44.795Z,6.68
2022-08-21T04:34:15.975Z,6.65
2022-08-21T04:36:45.172Z,6.97
2022-08-21T04:39:14.102Z,6.05
2022-08-21T04:41:46.067Z,6.50
2022-08-21T04:44:15.937Z,6.47
2022-08-21T04:46:45.252Z,7.00
2022-08-21T04:49:13.825Z,6.65
2022-08-21T04:51:43.290Z,6.95
2022-08-21T04:54:17.386Z,6.93
2022-08-21T04:56:54.840Z,6.95
2022-08-21T04:59:27.250Z,6.03
2022-08-21T05:01:57.711Z,5.85
2022-08-21T05:04:34.874Z,5.65
2022-08-21T05:07:11.930Z,5.75
2022-08-21T05:09:41.837Z,6.15
2022-08-21T05:12:13.379Z,6.03
2022-08-21T05:14:43.406Z,5.70
2022-08-21T05:17:14.211Z,5.90
2022-08-21T05:19:43.650Z,5.00
2022-08-21T05:22:12.511Z,5.22
2022-08-21T05:24:42.487Z,5.00
2022-08-21T05:27:14.720Z,5.35
2022-08-21T05:29:47.706Z,5.18
2022-08-21T05:32:17.160Z,4.78
2022-08-21T05:34:45.854Z,5.35
2022-08-21T05:37:16.512Z,5.57
2022-08-21T05:40:20.702Z,5.13
2022-08-21T05:42:36.512Z,5.13
2022-08-21T05:45:06.327Z,5.47
2022-08-21T05:47:35.248Z,5.40
2022-08-21T05:50:06.540Z,4.88
2022-08-21T05:52:35.544Z,4.75
2022-08-21T05:55:05.700Z,5.40
2022-08-21T05:57:36.786Z,4.65
2022-08-21T06:00:14.414Z,5.43
2022-08-21T06:02:43.958Z,4.63
2022-08-21T06:05:13.433Z,4.78
2022-08-21T06:07:46.280Z,5.22
2022-08-21T06:10:16.200Z,4.60
2022-08-21T06:12:47.427Z,4.95
2022-08-21T06:15:16.218Z,4.55
2022-08-21T06:17:46.737Z,4.97
2022-08-21T06:20:16.044Z,5.50
2022-08-21T06:22:44.898Z,4.78
2022-08-21T06:25:14.146Z,5.00
2022-08-21T06:27:44.067Z,4.72
2022-08-21T06:30:16.172Z,4.75
2022-08-21T06:32:44.893Z,4.40
2022-08-21T06:35:14.828Z,5.07
2022-08-21T06:37:44.012Z,5.82
2022-08-21T06:40:14.341Z,4.80
2022-08-21T06:42:43.071Z,5.10
2022-08-21T06:45:14.575Z,5.15
2022-08-21T06:47:43.574Z,5.82
2022-08-21T06:50:12.482Z,5.22
2022-08-21T06:52:43.974Z,5.60
2022-08-21T06:55:22.217Z,4.68
2022-08-21T06:57:54.383Z,4.75
2022-08-21T07:00:25.364Z,5.07
2022-08-21T07:03:06.792Z,4.60
2022-08-21T07:05:35.701Z,5.10
2022-08-21T07:08:05.097Z,4.95
2022-08-21T07:10:33.972Z,5.65
2022-08-21T07:13:03.170Z,5.38
2022-08-21T07:15:34.201Z,5.82
2022-08-21T07:18:03.409Z,5.32
2022-08-21T07:20:33.628Z,5.20
2022-08-21T07:23:07.858Z,5.00
2022-08-21T07:25:37.280Z,4.47
2022-08-21T07:28:06.882Z,4.38
2022-08-21T07:30:38.306Z,4.50
2022-08-21T07:33:06.984Z,4.57
2022-08-21T07:35:38.001Z,4.72
2022-08-21T07:38:07.221Z,4.43
2022-08-21T07:40:35.726Z,4.72
2022-08-21T07:43:05.126Z,4.93
2022-08-21T07:45:34.724Z,4.40
2022-08-21T07:48:06.062Z,4.18
2022-08-21T07:50:35.983Z,4.88
2022-08-21T07:53:06.459Z,4.03
2022-08-21T07:55:35.315Z,4.75
2022-08-21T07:58:04.348Z,5.05
2022-08-21T08:00:33.866Z,4.40
2022-08-21T08:03:04.684Z,4.18
2022-08-21T08:05:38.322Z,4.60
2022-08-21T08:08:07.986Z,4.20
2022-08-21T08:10:37.222Z,4.43
2022-08-21T08:13:10.431Z,5.30
2022-08-21T08:15:47.665Z,4.60
2022-08-21T08:18:19.201Z,3.67
2022-08-21T08:20:50.346Z,5.10
2022-08-21T08:23:19.415Z,4.78
2022-08-21T08:25:48.074Z,4.80
2022-08-21T08:34:12.922Z,4.90
2022-08-21T08:36:52.998Z,3.78
2022-08-21T08:39:26.414Z,4.30
2022-08-21T08:42:32.730Z,4.55
2022-08-21T08:45:05.237Z,4.03
2022-08-21T08:47:43.040Z,4.80
2022-08-21T08:50:19.869Z,4.18
2022-08-21T08:52:54.454Z,4.60
2022-08-21T08:55:31.182Z,5.00
2022-08-21T08:58:03.616Z,4.63
2022-08-21T09:00:35.121Z,4.28
2022-08-21T09:03:06.562Z,3.97
2022-08-21T09:05:51.044Z,4.65
2022-08-21T09:08:50.844Z,3.90
2022-08-21T09:11:31.393Z,3.53
2022-08-21T09:14:16.651Z,3.75
2022-08-21T09:17:02.588Z,4.10
2022-08-21T09:19:58.017Z,3.60
2022-08-21T09:22:51.452Z,3.17
2022-08-21T09:25:25.013Z,4.38
2022-08-21T09:27:58.193Z,5.13
2022-08-21T09:30:33.219Z,4.25
2022-08-21T09:35:33.029Z,3.55
2022-08-21T09:38:14.237Z,3.40
2022-08-21T09:40:47.560Z,3.28
2022-08-21T09:43:22.971Z,3.58
2022-08-21T09:46:11.284Z,3.60
2022-08-21T09:48:48.633Z,4.20
2022-08-21T09:51:24.227Z,2.97
2022-08-21T09:54:15.161Z,3.40
2022-08-21T09:57:18.259Z,3.28
2022-08-21T09:59:54.881Z,3.50
2022-08-21T10:02:32.287Z,4.15
2022-08-21T10:07:47.811Z,4.85
2022-08-21T10:10:27.747Z,3.50
2022-08-21T10:13:24.968Z,3.00
2022-08-21T10:16:32.163Z,3.95
2022-08-21T10:19:18.959Z,3.83
2022-08-21T10:22:02.885Z,3.42
2022-08-21T10:24:40.953Z,3.45
2022-08-21T10:27:23.695Z,4.18
2022-08-21T10:30:08.229Z,3.58
2022-08-21T10:33:03.702Z,3.33
2022-08-21T10:35:51.303Z,3.70
2022-08-21T10:39:25.985Z,3.25
2022-08-21T10:45:37.362Z,3.47
2022-08-21T10:48:09.756Z,3.73
2022-08-21T10:50:47.191Z,3.40
2022-08-21T10:53:43.540Z,3.45
2022-08-21T10:56:19.929Z,3.20
2022-08-21T10:59:04.210Z,3.10
2022-08-21T11:01:50.602Z,3.28
2022-08-21T11:04:26.292Z,3.65
2022-08-21T11:07:17.286Z,3.17
2022-08-21T11:09:50.129Z,2.80
2022-08-21T11:12:28.130Z,2.55
2022-08-21T11:15:02.726Z,2.53
2022-08-21T11:17:40.593Z,3.22
2022-08-21T11:20:17.418Z,2.63
2022-08-21T11:23:01.511Z,3.03
2022-08-21T11:25:37.658Z,2.95
2022-08-21T11:28:15.119Z,2.83
2022-08-21T11:30:58.260Z,3.10
2022-08-21T11:33:46.259Z,2.45
2022-08-21T11:36:34.240Z,3.28
2022-08-21T11:39:15.526Z,2.50
2022-08-21T11:41:55.168Z,2.58
2022-08-21T11:44:44.613Z,2.42
2022-08-21T11:47:21.702Z,2.30
2022-08-21T11:50:32.524Z,2.60
2022-08-21T11:53:11.317Z,2.78
2022-08-21T11:55:46.768Z,2.50
2022-08-21T11:58:22.946Z,2.50
2022-08-21T12:00:56.057Z,2.40
2022-08-21T12:03:30.030Z,2.33
2022-08-21T12:06:02.819Z,2.80
2022-08-21T12:08:34.968Z,2.10
2022-08-21T12:11:08.422Z,2.50
2022-08-21T12:13:42.152Z,2.30
2022-08-21T12:16:14.852Z,2.65
2022-08-21T12:18:44.486Z,1.85
2022-08-21T12:21:28.805Z,2.15
2022-08-21T12:24:17.990Z,1.80
2022-08-21T12:26:53.127Z,1.98
2022-08-21T12:32:06.261Z,2.40
2022-08-21T12:34:39.668Z,2.40
2022-08-21T12:37:20.871Z,1.80
2022-08-21T12:39:54.235Z,1.83
2022-08-21T12:42:29.468Z,2.10
2022-08-21T12:45:02.147Z,2.05
2022-08-21T12:47:38.447Z,1.90
2022-08-21T12:50:13.148Z,2.08
2022-08-21T12:52:56.216Z,2.03
2022-08-21T12:55:30.318Z,2.20
2022-08-21T12:57:59.034Z,1.83
2022-08-21T13:00:31.439Z,2.10
2022-08-21T13:03:00.634Z,2.30
2022-08-21T13:05:38.940Z,1.83
2022-08-21T13:08:12.705Z,1.98
2022-08-21T13:10:43.077Z,1.90
2022-08-21T13:13:25.831Z,2.05
2022-08-21T13:18:34.943Z,1.73
2022-08-21T13:21:10.212Z,2.10
2022-08-21T13:23:40.280Z,2.15
2022-08-21T13:26:18.601Z,2.50
2022-08-21T13:28:48.478Z,2.78
2022-08-21T13:31:24.038Z,2.20
2022-08-21T13:33:52.633Z,2.50
2022-08-21T13:36:27.143Z,2.58
2022-08-21T13:38:57.306Z,2.00
2022-08-21T13:41:31.109Z,2.20
2022-08-21T13:44:03.876Z,1.80
2022-08-21T13:46:36.348Z,2.25
2022-08-21T13:49:07.865Z,2.13
2022-08-21T13:51:37.045Z,1.77
2022-08-21T13:54:24.250Z,2.00
2022-08-21T13:56:52.625Z,1.98
2022-08-21T13:59:30.910Z,1.75
2022-08-21T14:02:02.181Z,1.77
2022-08-21T14:04:37.795Z,2.40
2022-08-21T14:07:19.677Z,2.05
2022-08-21T14:09:49.739Z,1.80
2022-08-21T14:12:25.677Z,2.63
2022-08-21T14:14:55.194Z,1.80
2022-08-21T14:17:33.550Z,2.20
2022-08-21T14:20:02.783Z,2.10
2022-08-21T14:22:40.131Z,1.98
2022-08-21T14:25:14.669Z,1.92
2022-08-21T14:27:52.318Z,2.25
2022-08-21T14:30:28.809Z,1.90
2022-08-21T14:32:58.111Z,2.28
2022-08-21T14:35:26.668Z,1.90
2022-08-21T14:37:55.398Z,3.35
2022-08-21T14:40:27.515Z,2.40
2022-08-21T14:42:56.165Z,2.28
2022-08-21T14:45:30.170Z,3.13
2022-08-21T14:47:59.698Z,2.67
2022-08-21T14:50:28.455Z,3.13
2022-08-21T14:52:56.640Z,3.72
2022-08-21T14:55:26.198Z,3.08
2022-08-21T14:57:56.917Z,2.42
2022-08-21T15:00:36.007Z,2.80
2022-08-21T15:03:07.217Z,2.83
2022-08-21T15:05:35.422Z,2.13
2022-08-21T15:08:03.974Z,2.33
2022-08-21T15:10:41.337Z,4.20
2022-08-21T15:13:21.297Z,4.15
2022-08-21T15:15:53.616Z,3.53
2022-08-21T15:18:22.460Z,3.17
2022-08-21T15:20:51.224Z,2.47
2022-08-21T15:23:20.310Z,2.42
2022-08-21T15:25:51.652Z,2.40
2022-08-21T15:28:21.435Z,2.38
2022-08-21T15:30:52.726Z,2.40
2022-08-21T15:33:22.384Z,2.10
2022-08-21T15:35:50.664Z,2.35
2022-08-21T15:38:18.992Z,2.42
2022-08-21T15:40:52.320Z,2.20
2022-08-21T15:43:30.643Z,2.15
2022-08-21T15:46:01.158Z,2.13
2022-08-21T15:48:30.257Z,2.03
2022-08-21T15:50:58.441Z,2.10
2022-08-21T15:53:26.574Z,2.30
2022-08-21T15:55:56.070Z,2.38
2022-08-21T15:58:25.755Z,2.67
2022-08-21T16:00:53.936Z,1.98
2022-08-21T16:03:22.884Z,2.38
2022-08-21T16:05:53.344Z,2.03
2022-08-21T16:08:22.497Z,2.17
2022-08-21T16:10:51.476Z,3.55
2022-08-21T16:13:27.779Z,2.60
2022-08-21T16:15:56.544Z,2.40
2022-08-21T16:18:26.544Z,2.10
2022-08-21T16:20:55.019Z,2.50
2022-08-21T16:23:23.328Z,2.85
2022-08-21T16:25:52.304Z,2.35
2022-08-21T16:28:22.566Z,1.83
2022-08-21T16:30:53.280Z,2.50
2022-08-21T16:33:28.629Z,2.42
2022-08-21T16:35:56.854Z,2.67
2022-08-21T16:38:25.241Z,2.13
2022-08-21T16:40:53.846Z,2.28
2022-08-21T16:43:24.931Z,2.30
2022-08-21T16:45:55.097Z,1.85
2022-08-21T16:48:24.206Z,2.30
2022-08-21T16:50:52.626Z,2.30
2022-08-21T16:53:20.795Z,2.13
2022-08-21T16:55:49.172Z,2.08
2022-08-21T16:58:24.761Z,2.30
2022-08-21T17:00:55.486Z,2.28
2022-08-21T17:03:33.870Z,1.98
2022-08-21T17:06:02.338Z,1.85
2022-08-21T17:08:30.510Z,2.40
2022-08-21T17:10:59.334Z,2.22
2022-08-21T17:13:28.568Z,2.17
2022-08-21T17:15:58.802Z,2.42
2022-08-21T17:18:27.848Z,2.63
2022-08-21T17:20:56.711Z,2.00
2022-08-21T17:23:25.140Z,2.00
2022-08-21T17:25:55.056Z,2.65
2022-08-21T17:28:28.900Z,2.22
2022-08-21T17:31:02.321Z,2.20
2022-08-21T17:33:45.540Z,2.35
2022-08-21T17:36:13.797Z,1.90
2022-08-21T17:38:44.212Z,1.88
2022-08-21T17:41:13.122Z,2.20
2022-08-21T17:43:42.715Z,2.42
2022-08-21T17:46:16.242Z,2.33
2022-08-21T17:48:47.257Z,2.40
2022-08-21T17:51:16.944Z,2.95
2022-08-21T17:53:46.092Z,2.00
2022-08-21T17:56:16.295Z,2.33
2022-08-21T17:58:48.391Z,2.20
2022-08-21T18:01:19.153Z,2.38
2022-08-21T18:03:48.037Z,2.30
2022-08-21T18:06:18.279Z,2.67
2022-08-21T18:08:46.993Z,2.65
2022-08-21T18:11:23.792Z,2.90
2022-08-21T18:13:55.184Z,3.10
2022-08-21T18:16:25.028Z,3.30
2022-08-21T18:18:53.514Z,3.05
2022-08-21T18:21:21.877Z,2.50
2022-08-21T18:23:50.625Z,2.22
2022-08-21T18:26:28.851Z,2.60
2022-08-21T18:29:00.442Z,2.22
2022-08-21T18:31:33.794Z,2.40
2022-08-21T18:34:07.081Z,2.60
2022-08-21T18:36:35.505Z,2.60
2022-08-21T18:39:32.709Z,2.05
2022-08-21T18:41:53.056Z,1.80
2022-08-21T18:44:24.711Z,2.38
2022-08-21T18:46:59.222Z,2.25
2022-08-21T18:49:28.213Z,1.87
2022-08-21T18:51:57.466Z,2.13
2022-08-21T18:54:26.468Z,1.92
2022-08-21T18:56:55.317Z,2.25
2022-08-21T18:59:26.772Z,2.70
2022-08-21T19:01:56.796Z,2.10
2022-08-21T19:04:43.596Z,2.25
2022-08-21T19:07:13.612Z,2.10
2022-08-21T19:09:52.740Z,2.40
2022-08-21T19:12:31.072Z,1.95
2022-08-21T19:15:00.638Z,2.33
2022-08-21T19:17:30.883Z,2.15
2022-08-21T19:20:05.880Z,2.30
2022-08-21T19:22:34.464Z,2.22
2022-08-21T19:25:02.985Z,2.30
2022-08-21T19:27:31.488Z,2.13
2022-08-21T19:30:00.349Z,1.77
2022-08-21T19:32:31.573Z,2.15
2022-08-21T19:35:00.283Z,2.17
2022-08-21T19:37:29.112Z,2.30
2022-08-21T19:39:59.078Z,2.47
2022-08-21T19:42:30.877Z,2.00
2022-08-21T19:44:59.601Z,2.10
2022-08-21T19:47:31.328Z,2.35
2022-08-21T19:50:03.851Z,2.38
2022-08-21T19:52:51.480Z,1.98
2022-08-21T19:55:20.288Z,3.85
2022-08-21T19:57:54.717Z,2.75
2022-08-21T20:00:24.195Z,2.75
2022-08-21T20:02:54.268Z,2.67
2022-08-21T20:05:22.952Z,3.55
2022-08-21T20:07:51.375Z,2.25
2022-08-21T20:10:19.893Z,2.83
2022-08-21T20:12:51.494Z,2.35
2022-08-21T20:15:23.025Z,2.28
2022-08-21T20:17:53.615Z,2.80
2022-08-21T20:20:21.905Z,2.30
2022-08-21T20:22:50.364Z,2.40
2022-08-21T20:25:21.271Z,2.63
2022-08-21T20:27:49.789Z,2.80
2022-08-21T20:30:22.719Z,2.50
2022-08-21T20:32:51.674Z,2.83
2022-08-21T20:35:23.033Z,2.92
2022-08-21T20:40:40.585Z,2.42
2022-08-21T20:43:12.829Z,2.88
2022-08-21T20:45:42.155Z,2.45
2022-08-21T20:48:15.361Z,2.45
2022-08-21T20:50:49.749Z,2.55
2022-08-21T20:53:32.164Z,2.72
2022-08-21T20:56:18.767Z,3.05
2022-08-21T20:58:57.906Z,4.05
2022-08-21T21:01:26.876Z,3.72
2022-08-21T21:04:03.141Z,3.33
2022-08-21T21:06:34.660Z,2.97
2022-08-21T21:09:11.163Z,3.15
2022-08-21T21:11:56.052Z,4.80
2022-08-21T21:14:39.175Z,4.10
2022-08-21T21:17:14.567Z,4.07
2022-08-21T21:19:49.008Z,4.15
2022-08-21T21:22:23.100Z,3.13
2022-08-21T21:25:00.864Z,2.97
2022-08-21T21:27:37.498Z,5.00
2022-08-21T21:30:12.382Z,4.13
2022-08-21T21:32:42.881Z,3.53
2022-08-21T21:35:17.074Z,3.13
2022-08-21T21:38:12.567Z,2.97
2022-08-21T21:40:58.219Z,3.05
2022-08-21T21:44:23.384Z,2.92
2022-08-21T21:47:02.728Z,3.20
2022-08-21T21:49:51.291Z,2.83
2022-08-21T21:52:41.922Z,3.38
2022-08-21T21:55:33.109Z,2.80
2022-08-21T21:58:33.371Z,2.60
2022-08-21T22:01:12.649Z,2.75
2022-08-21T22:03:48.303Z,3.00
2022-08-21T22:09:05.175Z,2.60
2022-08-21T22:11:55.743Z,2.95
2022-08-21T22:14:32.106Z,3.40
2022-08-21T22:17:28.237Z,2.90
2022-08-21T22:19:58.432Z,2.88
2022-08-21T22:22:30.437Z,2.80
2022-08-21T22:25:06.445Z,2.90
2022-08-21T22:27:40.870Z,3.00
2022-08-21T22:30:17.522Z,2.90
2022-08-21T22:32:50.384Z,3.20
2022-08-21T22:35:26.567Z,3.80
2022-08-21T22:37:58.675Z,4.30
2022-08-21T22:40:30.466Z,3.38
2022-08-21T22:43:03.626Z,3.17
2022-08-21T22:45:58.751Z,3.17
2022-08-21T22:48:29.862Z,2.22
2022-08-21T22:51:06.848Z,2.92
2022-08-21T22:53:40.768Z,2.97
2022-08-21T22:56:11.515Z,3.00
2022-08-21T22:58:56.455Z,2.35
2022-08-21T23:01:40.822Z,2.90
2022-08-21T23:06:55.311Z,2.67
2022-08-21T23:09:35.876Z,2.60
2022-08-21T23:12:21.103Z,3.00
2022-08-21T23:14:54.679Z,3.10
2022-08-21T23:17:39.389Z,2.63
2022-08-21T23:20:18.104Z,2.93
2022-08-21T23:23:08.913Z,2.80
2022-08-21T23:26:22.771Z,3.70
2022-08-21T23:29:24.911Z,2.80
2022-08-21T23:32:05.156Z,3.03
2022-08-21T23:34:46.074Z,3.10
2022-08-21T23:37:51.334Z,2.78
2022-08-21T23:40:50.939Z,2.92
2022-08-21T23:43:44.806Z,3.38
2022-08-21T23:46:46.159Z,3.45
2022-08-21T23:49:30.603Z,3.03
2022-08-21T23:52:15.824Z,3.55
2022-08-21T23:55:04.553Z,3.25
2022-08-21T23:57:50.971Z,3.17
